Time;durP1;ratioP1;P1;durP2;ratioP2;P2;SDS_P1;SDS_P2;PMS_P1;PMS_P2;Temp;Humidity;BMP_temperature;BMP_pressure;BME280_temperature;BME280_humidity;BME280_pressure;Samples;Min_cycle;Max_cycle;Signal;HPM_P1;HPM_P2
2023/01/30 00:00:05;;;;;;;24.50;16.30;;;-1.90;99.90;;;;;;5092267;28;20224;-68
2023/01/30 00:02:32;;;;;;;29.33;17.87;;;-2.00;99.90;;;;;;5092304;28;20196;-69
2023/01/30 00:04:58;;;;;;;24.47;15.40;;;-2.10;99.90;;;;;;5092151;28;20660;-69
2023/01/30 00:07:25;;;;;;;26.90;16.40;;;-2.00;99.90;;;;;;5092431;28;20273;-69
2023/01/30 00:09:51;;;;;;;28.37;17.53;;;-1.90;99.90;;;;;;5092426;28;20297;-68
2023/01/30 00:12:19;;;;;;;27.17;17.77;;;-2.00;99.90;;;;;;5093252;28;20602;-69
2023/01/30 00:14:46;;;;;;;25.67;15.57;;;-2.00;99.90;;;;;;5095985;28;20199;-69
2023/01/30 00:17:12;;;;;;;29.77;16.23;;;-1.90;99.90;;;;;;5095785;28;20605;-69
2023/01/30 00:19:39;;;;;;;23.93;15.60;;;-1.90;99.90;;;;;;5095587;28;20200;-70
2023/01/30 00:22:06;;;;;;;27.43;15.53;;;-2.00;99.90;;;;;;5095638;28;20707;-69
2023/01/30 00:24:33;;;;;;;25.67;16.47;;;-1.90;99.90;;;;;;5095827;28;20204;-69
2023/01/30 00:26:59;;;;;;;24.97;16.57;;;-1.90;99.90;;;;;;5095763;28;20278;-69
2023/01/30 00:29:27;;;;;;;27.53;17.70;;;-1.80;99.90;;;;;;5095691;28;20245;-69
2023/01/30 00:31:54;;;;;;;22.77;15.43;;;-1.80;99.90;;;;;;5095604;28;20215;-69
2023/01/30 00:34:20;;;;;;;28.47;16.87;;;-1.80;99.90;;;;;;5095548;28;20202;-69
2023/01/30 00:36:47;;;;;;;28.40;17.33;;;-1.80;99.90;;;;;;5095641;28;20197;-69
2023/01/30 00:39:14;;;;;;;26.23;16.90;;;-1.80;99.90;;;;;;5095754;28;20261;-70
2023/01/30 00:47:10;;;;;;;25.03;14.27;;;-1.80;99.90;;;;;;5095634;28;20196;-69
2023/01/30 00:49:37;;;;;;;24.73;14.67;;;-1.70;99.90;;;;;;5095428;28;20244;-69
2023/01/30 00:52:04;;;;;;;27.53;16.37;;;-1.70;99.90;;;;;;5095311;28;20219;-70
2023/01/30 00:54:31;;;;;;;24.27;16.23;;;-1.60;99.90;;;;;;5095145;28;20199;-69
2023/01/30 00:56:57;;;;;;;23.40;15.20;;;-1.60;99.90;;;;;;5095152;28;20192;-69
2023/01/30 00:59:24;;;;;;;24.53;15.93;;;-1.60;99.90;;;;;;5095002;28;20200;-70
2023/01/30 01:01:51;;;;;;;24.63;15.43;;;-1.60;99.90;;;;;;5095389;28;20269;-69
2023/01/30 01:04:19;;;;;;;26.60;17.33;;;-1.50;99.90;;;;;;5095148;28;20308;-69
2023/01/30 01:06:46;;;;;;;32.40;20.67;;;-1.50;99.90;;;;;;5094883;28;20203;-70
2023/01/30 01:09:12;;;;;;;28.60;16.77;;;-1.50;99.90;;;;;;5094894;28;20253;-69
2023/01/30 01:11:39;;;;;;;27.33;16.37;;;-1.40;99.90;;;;;;5094694;28;20248;-69
2023/01/30 01:14:06;;;;;;;26.07;15.87;;;-1.50;99.90;;;;;;5095185;28;20238;-71
2023/01/30 01:16:34;;;;;;;27.43;16.17;;;-1.40;99.90;;;;;;5094939;28;20196;-68
2023/01/30 01:19:01;;;;;;;24.10;15.47;;;-1.40;99.90;;;;;;5094629;28;20270;-70
2023/01/30 01:21:29;;;;;;;25.53;16.13;;;-1.30;99.90;;;;;;5094581;28;20285;-69
2023/01/30 01:23:57;;;;;;;28.77;18.03;;;-1.30;99.90;;;;;;5093433;28;20196;-69
2023/01/30 01:26:25;;;;;;;28.87;16.70;;;-1.30;99.90;;;;;;5094445;28;20732;-70
2023/01/30 01:28:54;;;;;;;28.03;18.10;;;-1.20;99.90;;;;;;5094619;28;20200;-69
2023/01/30 01:31:22;;;;;;;25.53;15.63;;;-1.20;99.90;;;;;;5094583;28;20198;-68
2023/01/30 01:33:49;;;;;;;26.47;15.50;;;-1.30;99.90;;;;;;5094438;28;20192;-69
2023/01/30 01:36:16;;;;;;;26.17;16.23;;;-1.30;99.90;;;;;;5094336;28;20207;-69
2023/01/30 01:38:44;;;;;;;26.07;15.97;;;-1.30;99.90;;;;;;5094207;28;20249;-69
2023/01/30 01:41:11;;;;;;;28.00;17.47;;;-1.30;99.90;;;;;;5094647;28;20224;-69
2023/01/30 01:43:58;;;;;;;26.80;15.50;;;-1.40;99.90;;;;;;5094365;28;20192;-69
2023/01/30 01:46:29;;;;;;;25.73;16.10;;;-1.30;99.90;;;;;;5094143;28;20196;-70
2023/01/30 01:49:00;;;;;;;29.00;17.60;;;-1.40;99.90;;;;;;5094076;28;20197;-70
2023/01/30 01:51:30;;;;;;;26.03;16.60;;;-1.40;99.90;;;;;;5094001;28;20204;-69
2023/01/30 01:54:03;;;;;;;26.23;16.03;;;-1.40;99.90;;;;;;5094104;28;20196;-69
2023/01/30 01:56:32;;;;;;;26.20;17.13;;;-1.30;99.90;;;;;;5094088;28;20211;-70
2023/01/30 01:59:04;;;;;;;25.63;15.40;;;-1.30;99.90;;;;;;5093865;28;20197;-68
2023/01/30 02:01:31;;;;;;;21.63;14.57;;;-1.30;99.90;;;;;;5093685;28;20691;-69
2023/01/30 02:04:03;;;;;;;26.17;16.10;;;-1.20;99.90;;;;;;5093722;28;20249;-68
2023/01/30 02:06:30;;;;;;;25.57;15.97;;;-1.20;99.90;;;;;;5093908;28;20378;-68
2023/01/30 02:09:02;;;;;;;22.20;13.63;;;-1.20;99.90;;;;;;5093889;28;20204;-68
2023/01/30 02:11:33;;;;;;;25.90;17.23;;;-1.20;99.90;;;;;;5093533;28;20224;-69
2023/01/30 02:14:01;;;;;;;23.50;16.40;;;-1.20;99.90;;;;;;5093650;28;20196;-69
2023/01/30 02:16:27;;;;;;;22.93;14.57;;;-1.20;99.90;;;;;;5093454;28;20250;-69
2023/01/30 02:18:55;;;;;;;22.87;14.80;;;-1.20;99.90;;;;;;5093698;28;20196;-69
2023/01/30 02:21:56;;;;;;;25.47;16.23;;;-1.20;99.90;;;;;;5093582;28;20224;-69
2023/01/30 02:24:52;;;;;;;24.60;16.10;;;-1.30;99.90;;;;;;5077853;28;20199;-69
2023/01/30 02:27:33;;;;;;;25.90;15.90;;;-1.30;99.90;;;;;;5093628;28;20196;-69
2023/01/30 02:30:24;;;;;;;27.13;14.80;;;-1.40;99.90;;;;;;5093487;28;20195;-68
2023/01/30 02:33:04;;;;;;;29.53;16.40;;;-1.30;99.90;;;;;;5093205;28;20663;-68
2023/01/30 02:35:41;;;;;;;25.33;16.70;;;-1.30;99.90;;;;;;5093175;28;20192;-68
2023/01/30 02:38:19;;;;;;;26.73;15.97;;;-1.30;99.90;;;;;;5093404;28;20195;-69
2023/01/30 02:40:56;;;;;;;26.40;16.90;;;-1.30;99.90;;;;;;5093063;28;20702;-69
2023/01/30 02:43:28;;;;;;;25.27;16.40;;;-1.30;99.90;;;;;;5093156;28;20200;-68
2023/01/30 02:46:00;;;;;;;19.43;12.97;;;-1.30;99.90;;;;;;5093162;28;20200;-68
2023/01/30 02:48:34;;;;;;;24.60;15.57;;;-1.30;99.90;;;;;;5093246;28;20211;-68
2023/01/30 02:51:05;;;;;;;22.63;14.70;;;-1.20;99.90;;;;;;5093149;28;20195;-68
2023/01/30 02:53:33;;;;;;;24.30;15.70;;;-1.20;99.90;;;;;;5093216;28;20195;-68
2023/01/30 02:55:59;;;;;;;23.60;15.00;;;-1.20;99.90;;;;;;5092921;28;20578;-68
2023/01/30 02:58:31;;;;;;;28.13;16.27;;;-1.20;99.90;;;;;;5093226;28;20659;-68
2023/01/30 03:01:30;;;;;;;26.83;16.37;;;-1.20;99.90;;;;;;5093000;28;20254;-68
2023/01/30 03:04:26;;;;;;;25.07;16.17;;;-1.20;99.90;;;;;;5092863;28;20201;-68
2023/01/30 03:07:05;;;;;;;25.83;16.63;;;-1.20;99.90;;;;;;5092999;28;20214;-69
2023/01/30 03:09:42;;;;;;;25.63;17.10;;;-1.10;99.90;;;;;;5092738;28;20281;-69
2023/01/30 03:12:16;;;;;;;26.23;15.90;;;-1.10;99.90;;;;;;5092750;28;20196;-69
2023/01/30 03:14:48;;;;;;;18.93;13.57;;;-1.10;99.90;;;;;;5092697;28;20196;-69
2023/01/30 03:17:18;;;;;;;20.97;14.10;;;-1.10;99.90;;;;;;5092916;28;20204;-69
2023/01/30 03:19:46;;;;;;;19.57;13.13;;;-1.10;99.90;;;;;;5092635;28;20648;-69
2023/01/30 03:22:12;;;;;;;23.27;13.73;;;-1.20;99.90;;;;;;5092498;28;20675;-69
2023/01/30 03:24:39;;;;;;;20.43;13.63;;;-1.20;99.90;;;;;;5092748;28;20196;-69
2023/01/30 03:27:11;;;;;;;22.07;14.47;;;-1.30;99.90;;;;;;5092521;28;20660;-69
2023/01/30 03:29:38;;;;;;;19.80;13.90;;;-1.30;99.90;;;;;;5092843;28;20199;-69
2023/01/30 03:32:05;;;;;;;24.37;14.80;;;-1.30;99.90;;;;;;5092686;28;20265;-69
2023/01/30 03:34:32;;;;;;;22.97;13.27;;;-1.40;99.90;;;;;;5092663;28;20229;-69
2023/01/30 03:37:00;;;;;;;22.07;15.20;;;-1.40;99.90;;;;;;5092681;28;20606;-69
2023/01/30 03:39:26;;;;;;;25.33;13.90;;;-1.30;99.90;;;;;;5092563;28;20193;-70
2023/01/30 03:41:53;;;;;;;21.00;13.73;;;-1.30;99.90;;;;;;5092374;28;20224;-69
2023/01/30 03:44:21;;;;;;;24.07;16.00;;;-1.30;99.90;;;;;;5092630;28;20200;-69
2023/01/30 03:46:47;;;;;;;21.23;14.50;;;-1.20;99.90;;;;;;5092818;28;20195;-69
2023/01/30 03:49:14;;;;;;;20.80;13.87;;;-1.20;99.90;;;;;;5096460;28;20200;-69
2023/01/30 03:51:41;;;;;;;21.10;14.00;;;-1.30;99.90;;;;;;5096459;28;20261;-70
2023/01/30 03:54:09;;;;;;;23.67;14.07;;;-1.30;99.90;;;;;;5096214;28;20563;-70
2023/01/30 03:56:35;;;;;;;22.17;14.27;;;-1.20;99.90;;;;;;5096411;28;20192;-68
2023/01/30 03:59:02;;;;;;;22.00;14.03;;;-1.20;99.90;;;;;;5096389;28;20200;-69
2023/01/30 04:01:28;;;;;;;21.03;14.10;;;-1.20;99.90;;;;;;5096107;28;20295;-69
2023/01/30 04:03:55;;;;;;;21.37;14.07;;;-1.10;99.90;;;;;;5096145;28;20200;-70
2023/01/30 04:06:22;;;;;;;21.83;14.27;;;-1.10;99.90;;;;;;5095969;28;20265;-69
2023/01/30 04:08:52;;;;;;;20.27;13.60;;;-1.10;99.90;;;;;;5095852;28;20250;-68
2023/01/30 04:11:19;;;;;;;21.00;13.63;;;-1.10;99.90;;;;;;5095967;28;20277;-68
2023/01/30 04:13:46;;;;;;;19.90;13.10;;;-1.00;99.90;;;;;;5095769;28;20689;-69
2023/01/30 04:16:18;;;;;;;20.80;13.53;;;-1.00;99.90;;;;;;5095955;28;20192;-70
2023/01/30 04:18:45;;;;;;;21.50;13.73;;;-0.90;99.90;;;;;;5095746;28;20540;-69
2023/01/30 04:21:13;;;;;;;22.07;14.07;;;-1.00;99.90;;;;;;5095499;28;20760;-70
2023/01/30 04:23:40;;;;;;;21.03;12.43;;;-0.90;99.90;;;;;;5095839;28;20273;-70
2023/01/30 04:26:07;;;;;;;19.70;13.20;;;-0.90;99.90;;;;;;5095516;28;20659;-70
2023/01/30 04:28:35;;;;;;;19.27;13.37;;;-1.00;99.90;;;;;;5095518;28;20570;-71
2023/01/30 04:31:02;;;;;;;24.07;15.93;;;-1.00;99.90;;;;;;5095572;28;20227;-69
2023/01/30 04:33:29;;;;;;;26.03;16.43;;;-1.10;99.90;;;;;;5095549;28;20261;-70
2023/01/30 04:35:58;;;;;;;25.17;16.30;;;-1.20;99.90;;;;;;5095365;28;20613;-69
2023/01/30 04:38:26;;;;;;;25.00;15.27;;;-1.30;99.90;;;;;;5095590;28;20204;-69
2023/01/30 04:40:54;;;;;;;26.33;16.13;;;-1.30;99.90;;;;;;5095345;28;20663;-69
2023/01/30 04:43:22;;;;;;;26.20;16.67;;;-1.30;99.90;;;;;;5095378;28;20257;-70
2023/01/30 04:45:51;;;;;;;27.53;17.73;;;-1.30;99.90;;;;;;5095319;28;20192;-69
2023/01/30 04:48:19;;;;;;;24.30;15.13;;;-1.40;99.90;;;;;;5095185;28;20200;-69
2023/01/30 04:50:49;;;;;;;28.93;17.37;;;-1.30;99.90;;;;;;5095284;28;20230;-69
2023/01/30 04:53:17;;;;;;;24.57;15.57;;;-1.30;99.90;;;;;;5095200;28;20270;-69
2023/01/30 04:55:43;;;;;;;26.50;16.03;;;-1.30;99.90;;;;;;5094982;28;20192;-69
2023/01/30 04:58:10;;;;;;;25.77;16.67;;;-1.30;99.90;;;;;;5094813;28;20199;-69
2023/01/30 05:00:37;;;;;;;32.07;17.37;;;-1.30;99.90;;;;;;5094849;28;20196;-69
2023/01/30 05:03:05;;;;;;;25.90;16.87;;;-1.30;99.90;;;;;;5094765;28;20230;-69
2023/01/30 05:05:32;;;;;;;27.50;15.10;;;-1.40;99.90;;;;;;5094952;28;20202;-69
2023/01/30 05:07:58;;;;;;;29.97;18.77;;;-1.40;99.90;;;;;;5094920;28;20200;-69
2023/01/30 05:10:25;;;;;;;28.20;17.80;;;-1.40;99.90;;;;;;5094427;28;20235;-69
2023/01/30 05:12:51;;;;;;;29.03;19.03;;;-1.40;99.90;;;;;;5094678;28;20200;-69
2023/01/30 05:15:18;;;;;;;29.10;17.77;;;-1.50;99.90;;;;;;5094694;28;20605;-70
2023/01/30 05:17:45;;;;;;;31.20;19.70;;;-1.50;99.90;;;;;;5094599;28;20201;-69
2023/01/30 05:20:13;;;;;;;28.17;17.70;;;-1.50;99.90;;;;;;5094770;28;20197;-70
2023/01/30 05:22:40;;;;;;;31.27;18.20;;;-1.50;99.90;;;;;;5094583;28;20224;-69
2023/01/30 05:25:08;;;;;;;28.13;17.33;;;-1.40;99.90;;;;;;5094528;28;20201;-69
2023/01/30 05:27:34;;;;;;;28.80;16.97;;;-1.40;99.90;;;;;;5094527;28;20200;-69
2023/01/30 05:30:01;;;;;;;28.13;17.20;;;-1.30;99.90;;;;;;5094278;28;20261;-68
2023/01/30 05:32:29;;;;;;;28.17;16.97;;;-1.30;99.90;;;;;;5094666;28;20376;-68
2023/01/30 05:34:55;;;;;;;27.87;16.97;;;-1.30;99.90;;;;;;5094707;28;20203;-70
2023/01/30 05:37:24;;;;;;;27.10;16.77;;;-1.30;99.90;;;;;;5094345;28;20192;-69
2023/01/30 05:39:50;;;;;;;27.20;16.63;;;-1.30;99.90;;;;;;5094321;28;20207;-69
2023/01/30 05:42:17;;;;;;;24.00;15.67;;;-1.30;99.90;;;;;;5094096;28;20265;-70
2023/01/30 05:44:44;;;;;;;28.77;17.03;;;-1.20;99.90;;;;;;5094054;28;20203;-68
2023/01/30 05:47:11;;;;;;;25.93;15.97;;;-1.20;99.90;;;;;;5094267;28;20196;-68
2023/01/30 05:49:38;;;;;;;26.07;16.20;;;-1.20;99.90;;;;;;5094286;28;20196;-69
2023/01/30 05:52:04;;;;;;;26.77;16.23;;;-1.20;99.90;;;;;;5094479;28;20196;-69
2023/01/30 05:54:33;;;;;;;26.40;16.30;;;-1.20;99.90;;;;;;5093934;28;20291;-69
2023/01/30 05:57:00;;;;;;;24.23;13.53;;;-1.20;99.90;;;;;;5093742;28;20196;-70
2023/01/30 05:59:27;;;;;;;23.63;14.57;;;-1.20;99.90;;;;;;5093732;28;20203;-70
2023/01/30 06:01:53;;;;;;;23.83;14.50;;;-1.20;99.90;;;;;;5093919;28;20220;-70
2023/01/30 06:04:20;;;;;;;24.27;16.07;;;-1.20;99.90;;;;;;5093674;28;20659;-70
2023/01/30 06:06:49;;;;;;;20.30;13.13;;;-1.20;99.90;;;;;;5093763;28;20345;-69
2023/01/30 06:09:15;;;;;;;25.80;16.33;;;-1.20;99.90;;;;;;5093379;28;20196;-69
2023/01/30 06:11:43;;;;;;;25.70;16.47;;;-1.20;99.90;;;;;;5093162;28;20242;-68
2023/01/30 06:14:10;;;;;;;21.37;13.33;;;-1.10;99.90;;;;;;5093795;28;20269;-69
2023/01/30 06:16:36;;;;;;;23.97;15.53;;;-1.10;99.90;;;;;;5093620;28;20201;-69
2023/01/30 06:19:03;;;;;;;23.10;14.87;;;-1.10;99.90;;;;;;5093608;28;20192;-69
2023/01/30 06:21:30;;;;;;;17.33;12.57;;;-1.10;99.90;;;;;;5093479;28;20276;-69
2023/01/30 06:23:57;;;;;;;20.27;13.30;;;-1.10;99.90;;;;;;5093350;28;20275;-70
2023/01/30 06:26:24;;;;;;;19.03;11.97;;;-1.10;99.90;;;;;;5093263;28;20196;-68
2023/01/30 06:28:51;;;;;;;18.03;12.60;;;-1.10;99.90;;;;;;5093561;28;20193;-68
2023/01/30 06:31:18;;;;;;;19.63;12.90;;;-1.00;99.90;;;;;;5093357;28;20196;-69
2023/01/30 06:33:45;;;;;;;21.13;13.40;;;-1.00;99.90;;;;;;5093217;28;20647;-68
2023/01/30 06:36:11;;;;;;;19.77;11.50;;;-1.00;99.90;;;;;;5093126;28;20230;-69
2023/01/30 06:38:38;;;;;;;19.60;12.70;;;-1.00;99.90;;;;;;5093030;28;20203;-69
2023/01/30 06:41:05;;;;;;;18.47;11.70;;;-1.00;99.90;;;;;;5093241;28;20219;-68
2023/01/30 06:43:32;;;;;;;19.57;12.80;;;-0.90;99.90;;;;;;5092926;28;20223;-69
2023/01/30 06:46:00;;;;;;;17.90;10.73;;;-0.90;99.90;;;;;;5092855;28;20656;-69
2023/01/30 06:48:26;;;;;;;16.27;10.73;;;-0.90;99.90;;;;;;5092895;28;20258;-69
2023/01/30 06:50:53;;;;;;;18.43;12.17;;;-0.90;99.90;;;;;;5092740;28;20219;-69
2023/01/30 06:53:21;;;;;;;16.97;11.13;;;-0.90;99.90;;;;;;5092608;28;20192;-69
2023/01/30 06:55:47;;;;;;;25.63;13.67;;;-0.90;99.90;;;;;;5093090;28;20219;-69
2023/01/30 06:58:14;;;;;;;18.27;12.50;;;-1.00;99.90;;;;;;5092838;28;20196;-69
2023/01/30 07:00:42;;;;;;;15.47;11.03;;;-1.00;99.90;;;;;;5092913;28;20261;-69
2023/01/30 07:03:12;;;;;;;15.97;11.20;;;-1.00;99.90;;;;;;5092631;28;20224;-69
2023/01/30 07:05:39;;;;;;;21.27;12.67;;;-1.00;99.90;;;;;;5092626;28;20196;-69
2023/01/30 07:08:06;;;;;;;19.43;11.87;;;-1.00;99.90;;;;;;5092665;28;20204;-69
2023/01/30 07:10:34;;;;;;;18.60;12.30;;;-1.00;99.90;;;;;;5093007;28;20242;-69
2023/01/30 07:13:00;;;;;;;19.63;12.17;;;-0.90;99.90;;;;;;5093236;28;20283;-68
2023/01/30 07:15:27;;;;;;;18.57;12.83;;;-0.90;99.90;;;;;;5093041;28;20198;-69
2023/01/30 07:17:54;;;;;;;13.97;10.67;;;-0.90;99.90;;;;;;5092768;28;20201;-69
2023/01/30 07:20:22;;;;;;;17.23;10.97;;;-0.90;99.90;;;;;;5092699;28;20537;-68
2023/01/30 07:22:50;;;;;;;18.50;11.83;;;-0.90;99.90;;;;;;5094771;28;20261;-69
2023/01/30 07:25:17;;;;;;;16.37;9.90;;;-0.90;99.90;;;;;;5097108;28;20201;-70
2023/01/30 07:27:43;;;;;;;15.40;11.17;;;-0.90;99.90;;;;;;5096902;28;20199;-69
2023/01/30 07:30:11;;;;;;;16.33;11.13;;;-0.90;99.90;;;;;;5096862;28;20204;-69
2023/01/30 07:32:38;;;;;;;16.53;10.50;;;-0.80;99.90;;;;;;5096812;28;20254;-69
2023/01/30 07:35:05;;;;;;;19.27;12.40;;;-0.80;99.90;;;;;;5096669;28;20196;-69
2023/01/30 07:37:33;;;;;;;15.50;11.23;;;-0.70;99.90;;;;;;5096915;28;20196;-70
2023/01/30 07:40:00;;;;;;;15.63;10.43;;;-0.80;99.90;;;;;;5096710;28;20559;-69
2023/01/30 07:42:26;;;;;;;22.40;12.30;;;-0.80;99.90;;;;;;5096485;28;20220;-69
2023/01/30 07:44:53;;;;;;;16.87;11.43;;;-0.80;99.90;;;;;;5096487;28;20222;-69
2023/01/30 07:47:19;;;;;;;17.10;11.77;;;-0.70;99.90;;;;;;5096469;28;20196;-69
2023/01/30 07:49:46;;;;;;;18.53;11.97;;;-0.70;99.90;;;;;;5096558;28;20201;-70
2023/01/30 07:52:13;;;;;;;15.73;9.90;;;-0.60;99.90;;;;;;5096683;28;20200;-70
2023/01/30 07:54:41;;;;;;;15.07;10.63;;;-0.50;99.90;;;;;;5096330;28;20567;-70
2023/01/30 07:57:07;;;;;;;20.90;11.83;;;-0.40;99.90;;;;;;5096199;28;20257;-69
2023/01/30 07:59:34;;;;;;;15.00;9.23;;;-0.50;99.90;;;;;;5096122;28;20197;-69
2023/01/30 08:02:00;;;;;;;17.50;11.83;;;-0.50;99.90;;;;;;5096028;28;20200;-70
2023/01/30 08:04:27;;;;;;;15.87;10.13;;;-0.40;99.90;;;;;;5096288;28;20246;-70
2023/01/30 08:06:54;;;;;;;15.63;10.43;;;-0.40;99.90;;;;;;5096173;28;20547;-69
2023/01/30 08:09:20;;;;;;;15.10;10.53;;;-0.30;99.90;;;;;;5095939;28;20193;-69
2023/01/30 08:11:48;;;;;;;13.60;9.47;;;-0.10;99.90;;;;;;5095980;28;20200;-69
2023/01/30 08:14:15;;;;;;;16.33;10.40;;;-0.20;99.90;;;;;;5096079;28;20261;-69
2023/01/30 08:16:41;;;;;;;17.07;10.33;;;-0.30;99.90;;;;;;5095734;28;20555;-69
2023/01/30 08:19:08;;;;;;;14.20;10.27;;;-0.30;99.90;;;;;;5096064;28;20193;-70
2023/01/30 08:21:35;;;;;;;15.47;9.90;;;-0.30;99.90;;;;;;5095858;28;20200;-70
2023/01/30 08:24:01;;;;;;;14.70;9.83;;;-0.30;99.90;;;;;;5095524;28;20691;-70
2023/01/30 08:26:28;;;;;;;10.07;7.40;;;-0.30;99.90;;;;;;5095738;28;20200;-69
2023/01/30 08:28:56;;;;;;;13.33;8.83;;;-0.30;99.90;;;;;;5095589;28;20197;-70
2023/01/30 08:31:23;;;;;;;11.93;9.43;;;-0.30;99.90;;;;;;5095564;28;20548;-71
2023/01/30 08:33:49;;;;;;;14.67;8.70;;;-0.20;99.90;;;;;;5095109;28;20204;-70
2023/01/30 08:36:16;;;;;;;15.23;10.10;;;-0.20;99.90;;;;;;5095665;28;20255;-70
2023/01/30 08:38:43;;;;;;;12.63;8.57;;;-0.10;99.90;;;;;;5095430;28;20200;-70
2023/01/30 08:41:09;;;;;;;16.07;10.77;;;-0.20;99.90;;;;;;5095447;28;20708;-70
2023/01/30 08:43:36;;;;;;;14.97;10.00;;;-0.20;99.90;;;;;;5095165;28;20269;-70
2023/01/30 08:46:04;;;;;;;16.00;10.67;;;-0.20;99.90;;;;;;5095236;28;20204;-70
2023/01/30 08:48:31;;;;;;;13.53;9.50;;;-0.10;99.90;;;;;;5095199;28;20716;-70
2023/01/30 08:50:58;;;;;;;12.30;8.97;;;-0.20;99.90;;;;;;5095306;28;20304;-68
2023/01/30 08:53:24;;;;;;;13.93;10.40;;;-0.10;99.90;;;;;;5095341;28;20197;-69
2023/01/30 08:55:52;;;;;;;12.10;7.87;;;-0.10;99.90;;;;;;5095077;28;20217;-68
2023/01/30 08:58:18;;;;;;;13.57;8.47;;;-0.10;99.90;;;;;;5095023;28;20567;-68
2023/01/30 09:00:45;;;;;;;14.93;10.00;;;0.00;99.90;;;;;;5095218;28;20200;-68
2023/01/30 09:03:14;;;;;;;14.63;9.47;;;0.00;99.90;;;;;;5095109;28;20232;-68
2023/01/30 09:05:41;;;;;;;14.67;9.77;;;0.00;99.90;;;;;;5094948;28;20258;-69
2023/01/30 09:08:08;;;;;;;12.60;8.47;;;0.00;99.90;;;;;;5094836;28;20204;-70
2023/01/30 09:10:35;;;;;;;12.93;8.80;;;0.00;99.90;;;;;;5094878;28;20282;-70
2023/01/30 09:13:01;;;;;;;11.87;8.53;;;0.00;99.90;;;;;;5094686;28;20196;-69
2023/01/30 09:15:28;;;;;;;13.30;9.10;;;0.00;99.90;;;;;;5094988;28;20253;-69
2023/01/30 09:17:55;;;;;;;13.30;8.57;;;0.00;99.90;;;;;;5094771;28;20329;-69
2023/01/30 09:20:24;;;;;;;10.80;7.07;;;-0.10;99.90;;;;;;5094823;28;20193;-70
2023/01/30 09:22:51;;;;;;;12.97;8.27;;;-0.10;99.90;;;;;;5094265;28;20220;-70
2023/01/30 09:25:17;;;;;;;12.97;8.83;;;-0.10;99.90;;;;;;5094352;28;20207;-70
2023/01/30 09:27:47;;;;;;;13.43;9.30;;;-0.10;99.90;;;;;;5094368;28;20204;-69
2023/01/30 09:30:14;;;;;;;14.83;9.87;;;-0.20;99.90;;;;;;5094576;28;20243;-69
2023/01/30 09:32:41;;;;;;;15.37;11.00;;;-0.20;99.90;;;;;;5094370;28;20201;-70
2023/01/30 09:35:07;;;;;;;12.07;7.80;;;-0.20;99.90;;;;;;5094247;28;20269;-69
2023/01/30 09:37:35;;;;;;;14.20;9.47;;;-0.20;99.90;;;;;;5094285;28;20227;-68
2023/01/30 09:40:03;;;;;;;12.40;8.23;;;-0.20;99.90;;;;;;5094012;28;20549;-69
2023/01/30 09:42:57;;;;;;;11.90;7.50;;;-0.20;99.90;;;;;;5094349;28;20201;-69
2023/01/30 09:45:44;;;;;;;9.87;6.40;;;-0.10;99.90;;;;;;5091233;28;20586;-69
2023/01/30 09:48:17;;;;;;;8.23;4.93;;;-0.10;99.90;;;;;;5093966;28;20222;-69
2023/01/30 09:51:00;;;;;;;12.83;8.73;;;-0.10;99.90;;;;;;5094297;28;20230;-69
2023/01/30 09:53:36;;;;;;;13.83;9.00;;;0.00;99.90;;;;;;5094074;28;20204;-69
2023/01/30 09:56:03;;;;;;;12.33;7.50;;;0.10;99.90;;;;;;5094034;28;20204;-69
2023/01/30 09:58:40;;;;;;;12.07;8.47;;;0.10;99.90;;;;;;5093727;28;20233;-69
2023/01/30 10:01:16;;;;;;;9.60;6.97;;;0.20;99.90;;;;;;5093748;28;20289;-69
2023/01/30 10:03:54;;;;;;;12.43;7.50;;;0.30;99.90;;;;;;5093768;28;20296;-69
2023/01/30 10:06:21;;;;;;;11.37;7.33;;;0.30;99.90;;;;;;5093768;28;20200;-70
2023/01/30 10:08:56;;;;;;;11.67;7.80;;;0.40;99.90;;;;;;5093604;28;20269;-70
2023/01/30 10:11:33;;;;;;;9.40;6.53;;;0.50;99.90;;;;;;5093392;28;20625;-70
2023/01/30 10:14:31;;;;;;;9.43;6.20;;;0.50;99.90;;;;;;5093722;28;20203;-69
2023/01/30 10:17:07;;;;;;;11.03;6.83;;;0.50;99.90;;;;;;5091222;28;20691;-69
2023/01/30 10:19:51;;;;;;;9.13;7.10;;;0.60;99.90;;;;;;5093329;28;20265;-70
2023/01/30 10:22:32;;;;;;;10.43;6.77;;;0.60;99.90;;;;;;5093632;28;20807;-69
2023/01/30 10:25:12;;;;;;;9.10;6.30;;;0.60;99.90;;;;;;5093648;28;20223;-69
2023/01/30 10:27:46;;;;;;;10.10;6.10;;;0.60;99.90;;;;;;5093362;28;20196;-69
2023/01/30 10:30:15;;;;;;;8.67;6.30;;;0.70;99.90;;;;;;5093154;28;20204;-69
2023/01/30 10:32:45;;;;;;;8.23;6.37;;;0.70;99.90;;;;;;5093465;28;20196;-69
2023/01/30 10:35:16;;;;;;;8.03;5.80;;;0.70;99.90;;;;;;5093301;28;20192;-69
2023/01/30 10:37:51;;;;;;;8.07;5.63;;;0.70;99.90;;;;;;5093278;28;20196;-69
2023/01/30 10:40:26;;;;;;;7.17;5.47;;;0.70;99.90;;;;;;5093171;28;20192;-70
2023/01/30 10:43:01;;;;;;;9.03;5.70;;;0.70;99.90;;;;;;5093209;28;20196;-69
2023/01/30 10:45:33;;;;;;;7.60;5.37;;;0.70;99.90;;;;;;5093020;28;20245;-69
2023/01/30 10:48:11;;;;;;;7.77;6.00;;;0.70;99.90;;;;;;5093221;28;20258;-68
2023/01/30 10:50:50;;;;;;;8.63;5.30;;;0.70;99.90;;;;;;5092908;28;20600;-69
2023/01/30 10:53:21;;;;;;;6.70;5.33;;;0.70;99.90;;;;;;5092837;28;20720;-70
2023/01/30 10:55:55;;;;;;;9.33;5.73;;;0.70;99.90;;;;;;5092657;28;20598;-69
2023/01/30 10:58:31;;;;;;;7.17;5.53;;;0.70;99.90;;;;;;5093332;28;20252;-69
2023/01/30 11:01:01;;;;;;;6.67;4.73;;;0.70;99.90;;;;;;5092978;28;20218;-69
2023/01/30 11:03:36;;;;;;;9.07;6.43;;;0.70;99.90;;;;;;5092482;28;20216;-69
2023/01/30 11:06:07;;;;;;;8.53;6.33;;;0.80;99.90;;;;;;5093244;28;20199;-69
2023/01/30 11:08:36;;;;;;;7.10;5.07;;;0.80;99.90;;;;;;5092855;28;20630;-69
2023/01/30 11:11:24;;;;;;;7.13;5.53;;;0.80;99.90;;;;;;5092451;28;20704;-69
2023/01/30 11:13:50;;;;;;;8.23;5.83;;;0.90;99.90;;;;;;5092599;28;20666;-69
2023/01/30 11:16:18;;;;;;;7.53;5.20;;;0.90;99.90;;;;;;5092532;28;20552;-68
2023/01/30 11:18:47;;;;;;;8.83;6.27;;;0.90;99.90;;;;;;5092544;28;20605;-68
2023/01/30 11:21:20;;;;;;;7.90;5.93;;;0.80;99.90;;;;;;5092631;28;20196;-69
2023/01/30 11:23:46;;;;;;;8.57;6.03;;;0.80;99.90;;;;;;5092450;28;20216;-69
2023/01/30 11:26:21;;;;;;;8.03;6.00;;;0.90;99.90;;;;;;5092582;28;20196;-69
2023/01/30 11:28:47;;;;;;;7.03;4.93;;;0.90;99.90;;;;;;5092525;28;20256;-70
2023/01/30 11:31:20;;;;;;;6.30;5.63;;;0.90;99.90;;;;;;5092700;28;20303;-68
2023/01/30 11:33:59;;;;;;;6.70;5.10;;;0.90;99.90;;;;;;5092618;28;20203;-69
2023/01/30 11:36:28;;;;;;;6.77;5.27;;;0.80;99.90;;;;;;5092522;28;20196;-69
2023/01/30 11:38:58;;;;;;;6.73;5.00;;;0.90;99.90;;;;;;5092340;28;20196;-69
2023/01/30 11:41:27;;;;;;;9.17;5.80;;;0.90;99.90;;;;;;5092528;28;20234;-69
2023/01/30 11:44:00;;;;;;;7.87;5.73;;;1.00;99.90;;;;;;5092450;28;20216;-69
2023/01/30 11:46:31;;;;;;;7.57;4.83;;;0.90;99.90;;;;;;5092710;28;20203;-70
2023/01/30 11:49:01;;;;;;;7.20;5.53;;;1.00;99.90;;;;;;5092309;28;20274;-70
2023/01/30 11:51:27;;;;;;;7.63;5.60;;;1.10;99.90;;;;;;5092471;28;20193;-70
2023/01/30 11:53:57;;;;;;;5.70;4.87;;;1.10;99.90;;;;;;5092520;28;20232;-70
2023/01/30 11:56:31;;;;;;;6.10;4.83;;;1.20;99.90;;;;;;5092246;28;20609;-69
2023/01/30 11:59:01;;;;;;;5.53;4.40;;;1.20;99.90;;;;;;5092299;28;20241;-69
2023/01/30 12:01:30;;;;;;;7.67;4.67;;;1.20;99.90;;;;;;5092142;28;20205;-70
2023/01/30 12:03:58;;;;;;;6.53;4.67;;;1.30;99.90;;;;;;5091743;28;20220;-69
2023/01/30 12:06:30;;;;;;;6.97;5.13;;;1.30;99.90;;;;;;5092288;28;20209;-69
2023/01/30 12:08:57;;;;;;;6.40;4.23;;;1.30;99.90;;;;;;5094305;28;20192;-69
2023/01/30 12:11:29;;;;;;;6.87;5.23;;;1.30;99.90;;;;;;5096117;28;20587;-70
2023/01/30 12:14:08;;;;;;;7.33;5.30;;;1.30;99.90;;;;;;5096012;28;20196;-71
2023/01/30 12:16:46;;;;;;;6.37;4.80;;;1.30;99.90;;;;;;5096216;28;20208;-70
2023/01/30 12:19:27;;;;;;;7.33;5.30;;;1.30;99.90;;;;;;5095871;28;20270;-69
2023/01/30 12:22:01;;;;;;;8.33;5.37;;;1.40;99.90;;;;;;5095780;28;20197;-70
2023/01/30 12:24:35;;;;;;;9.57;6.37;;;1.40;99.90;;;;;;5095542;28;20621;-70
2023/01/30 12:27:10;;;;;;;9.13;6.50;;;1.40;99.90;;;;;;5095568;28;20659;-70
2023/01/30 12:29:43;;;;;;;11.37;7.90;;;1.40;99.90;;;;;;5096070;28;20200;-70
2023/01/30 12:32:13;;;;;;;9.50;6.50;;;1.40;99.90;;;;;;5095820;28;20206;-70
2023/01/30 12:34:39;;;;;;;11.43;7.77;;;1.30;99.90;;;;;;5095589;28;20254;-70
2023/01/30 12:37:21;;;;;;;20.33;13.10;;;1.20;99.90;;;;;;5095416;28;20773;-69
2023/01/30 12:39:58;;;;;;;18.93;12.17;;;1.20;99.90;;;;;;5095826;28;20196;-70
2023/01/30 12:42:49;;;;;;;12.07;7.97;;;1.20;99.90;;;;;;5095570;28;20200;-69
2023/01/30 12:45:22;;;;;;;18.90;11.57;;;1.20;99.90;;;;;;5095216;28;20604;-71
2023/01/30 12:48:13;;;;;;;9.20;7.13;;;1.20;99.90;;;;;;5095663;28;20193;-70
2023/01/30 12:50:54;;;;;;;12.93;8.70;;;1.20;99.90;;;;;;5095440;28;20257;-70
2023/01/30 12:53:36;;;;;;;11.87;8.53;;;1.20;99.90;;;;;;5095247;28;20196;-70